Lost Creek, West Virginia
Current Conditions -  °F | °C
As of 12:53 AM on Wednesday 28 Jan 2015 (Local Time) from KCKB Reporting Station
Light Snow Light Snow  
Wind Chill: 12°   Ceiling: 1600
Heat Index: 20°   Visibility: 3mi
Dew Point: 15°   Wind: 6mph
Humidity: 81%   Direction: 290°WNW
Pressure: 30.14"   Gusts: NA
Location:  39.16°N, 80.35°W
Report Text: KCKB 280553Z AUTO 29005KT 3SM -SN OVC016 M07/M09 A3014 RMK AO2 SLP221 P0000 60000 T10671094 11061 21067 51011 TSNO
Loading
Personal Weather Stations






























Interactive Weather Map New forecast layout! Learn more

10-Day Weather Forecast

Advertisements
Track Severe Weather on mobile